createdAt,value
2023-02-04T00:02:06.770Z,5.24
2023-02-04T00:04:33.349Z,5.14
2023-02-04T00:07:00.044Z,5.14
2023-02-04T00:09:26.640Z,5.16
2023-02-04T00:11:53.303Z,5.07
2023-02-04T00:14:19.872Z,5.09
2023-02-04T00:16:46.490Z,5.06
2023-02-04T00:19:13.046Z,5.04
2023-02-04T00:21:39.737Z,5.12
2023-02-04T00:24:06.526Z,4.99
2023-02-04T00:26:33.096Z,5.03
2023-02-04T00:28:59.834Z,5.00
2023-02-04T00:31:26.566Z,4.98
2023-02-04T00:33:53.297Z,4.96
2023-02-04T00:36:19.943Z,4.96
2023-02-04T00:38:46.487Z,4.95
2023-02-04T00:41:13.154Z,4.96
2023-02-04T00:43:39.594Z,4.91
2023-02-04T00:46:06.276Z,4.89
2023-02-04T00:48:34.404Z,4.86
2023-02-04T00:51:01.145Z,4.91
2023-02-04T00:53:27.683Z,4.88
2023-02-04T00:55:54.348Z,4.88
2023-02-04T00:58:20.809Z,4.87
2023-02-04T01:00:47.457Z,4.83
2023-02-04T01:03:14.288Z,4.77
2023-02-04T01:05:40.936Z,4.75
2023-02-04T01:08:07.683Z,4.74
2023-02-04T01:10:34.143Z,4.66
2023-02-04T01:13:02.153Z,4.65
2023-02-04T01:15:28.805Z,4.64
2023-02-04T01:17:55.596Z,4.62
2023-02-04T01:20:22.271Z,4.57
2023-02-04T01:22:49.004Z,4.59
2023-02-04T01:25:15.694Z,4.59
2023-02-04T01:27:43.735Z,4.57
2023-02-04T01:30:12.185Z,4.53
2023-02-04T01:32:38.817Z,4.47
2023-02-04T01:35:05.737Z,4.41
2023-02-04T01:37:32.424Z,4.31
2023-02-04T01:39:59.366Z,4.21
2023-02-04T01:42:26.648Z,4.15
2023-02-04T01:44:53.628Z,4.21
2023-02-04T01:47:21.298Z,4.15
2023-02-04T01:49:51.278Z,4.17
2023-02-04T01:52:18.186Z,4.20
2023-02-04T01:54:44.872Z,4.19
2023-02-04T01:57:15.763Z,4.18
2023-02-04T01:59:44.797Z,4.11
2023-02-04T02:02:56.953Z,4.14
2023-02-04T02:05:27.448Z,4.11
2023-02-04T02:07:56.443Z,4.13
2023-02-04T02:10:24.007Z,4.13
2023-02-04T02:12:50.941Z,4.20
2023-02-04T02:15:17.899Z,4.26
2023-02-04T02:17:44.962Z,4.22
2023-02-04T02:20:14.636Z,4.13
2023-02-04T02:23:02.672Z,3.05
2023-02-04T02:25:29.439Z,2.25
2023-02-04T02:27:57.719Z,2.05
2023-02-04T02:30:24.953Z,1.85
2023-02-04T02:32:52.609Z,1.72
2023-02-04T02:35:19.170Z,1.69
2023-02-04T02:37:45.846Z,1.86
2023-02-04T02:40:14.163Z,1.85
2023-02-04T02:42:44.121Z,1.85
2023-02-04T02:45:22.875Z,1.90
2023-02-04T02:47:50.297Z,1.98
2023-02-04T02:50:20.721Z,2.08
2023-02-04T02:52:47.433Z,2.12
2023-02-04T02:55:19.471Z,2.20
2023-02-04T02:57:47.941Z,2.18
2023-02-04T03:00:20.330Z,2.20
2023-02-04T03:02:57.142Z,2.30
2023-02-04T03:05:25.085Z,2.26
2023-02-04T03:07:51.868Z,2.27
2023-02-04T03:10:18.809Z,2.32
2023-02-04T03:12:47.183Z,2.27
2023-02-04T03:15:15.198Z,2.32
2023-02-04T03:17:42.602Z,2.37
2023-02-04T03:20:10.357Z,2.37
2023-02-04T03:22:37.139Z,2.40
2023-02-04T03:25:04.032Z,2.41
2023-02-04T03:27:30.763Z,2.43
2023-02-04T03:29:57.355Z,2.47
2023-02-04T03:32:23.899Z,2.41
2023-02-04T03:34:50.470Z,2.50
2023-02-04T03:37:17.078Z,2.53
2023-02-04T03:39:43.741Z,2.51
2023-02-04T03:42:10.397Z,2.36
2023-02-04T03:44:36.985Z,2.36
2023-02-04T03:47:03.621Z,2.29
2023-02-04T03:49:32.289Z,2.24
2023-02-04T03:51:58.946Z,2.13
2023-02-04T03:54:25.501Z,2.17
2023-02-04T03:56:52.270Z,2.24
2023-02-04T03:59:18.954Z,2.40
2023-02-04T04:01:45.798Z,2.21
2023-02-04T04:04:12.380Z,2.16
2023-02-04T04:06:38.974Z,2.23
2023-02-04T04:09:05.641Z,2.28
2023-02-04T04:11:32.220Z,2.19
2023-02-04T04:13:59.044Z,2.15
2023-02-04T04:16:25.507Z,2.14
2023-02-04T04:18:52.032Z,2.17
2023-02-04T04:21:18.662Z,2.18
2023-02-04T04:23:45.284Z,2.35
2023-02-04T04:26:11.873Z,2.31
2023-02-04T04:28:38.509Z,2.18
2023-02-04T04:31:05.390Z,2.17
2023-02-04T04:33:32.106Z,2.20
2023-02-04T04:35:58.681Z,2.13
2023-02-04T04:38:25.392Z,2.05
2023-02-04T04:40:51.953Z,2.04
2023-02-04T04:43:18.450Z,2.05
2023-02-04T04:45:45.087Z,2.02
2023-02-04T04:48:11.688Z,1.92
2023-02-04T04:50:38.287Z,1.98
2023-02-04T04:53:05.118Z,1.96
2023-02-04T04:55:32.923Z,1.95
2023-02-04T04:57:59.565Z,1.86
2023-02-04T05:00:26.421Z,1.84
2023-02-04T05:02:52.952Z,1.92
2023-02-04T05:05:19.602Z,1.96
2023-02-04T05:07:46.226Z,1.98
2023-02-04T05:10:12.833Z,2.00
2023-02-04T05:12:39.482Z,2.02
2023-02-04T05:15:06.463Z,1.97
2023-02-04T05:17:33.076Z,1.88
2023-02-04T05:19:59.673Z,1.89
2023-02-04T05:22:26.268Z,1.88
2023-02-04T05:24:52.888Z,1.83
2023-02-04T05:27:19.479Z,1.77
2023-02-04T05:29:46.206Z,1.76
2023-02-04T05:32:12.882Z,1.75
2023-02-04T05:34:40.049Z,1.72
2023-02-04T05:37:06.704Z,1.66
2023-02-04T05:39:33.234Z,1.68
2023-02-04T05:41:59.774Z,1.68
2023-02-04T05:44:27.580Z,1.71
2023-02-04T05:46:54.271Z,1.65
2023-02-04T05:49:21.160Z,1.72
2023-02-04T05:51:47.806Z,1.66
2023-02-04T05:54:19.523Z,1.66
2023-02-04T05:56:47.356Z,1.67
2023-02-04T05:59:14.029Z,1.59
2023-02-04T06:01:40.653Z,1.69
2023-02-04T06:04:07.280Z,1.59
2023-02-04T06:06:34.160Z,1.54
2023-02-04T06:09:01.374Z,1.53
2023-02-04T06:11:28.350Z,1.61
2023-02-04T06:13:55.282Z,1.58
2023-02-04T06:16:22.019Z,1.48
2023-02-04T06:18:48.826Z,1.51
2023-02-04T06:21:15.586Z,1.49
2023-02-04T06:23:42.151Z,1.49
2023-02-04T06:26:09.035Z,1.43
2023-02-04T06:28:35.786Z,1.44
2023-02-04T06:31:02.583Z,1.47
2023-02-04T06:33:29.280Z,1.48
2023-02-04T06:35:55.892Z,1.51
2023-02-04T06:38:22.452Z,1.59
2023-02-04T06:40:49.577Z,1.59
2023-02-04T06:43:16.468Z,1.57
2023-02-04T06:45:43.198Z,1.53
2023-02-04T06:48:09.893Z,1.54
2023-02-04T06:50:36.573Z,1.44
2023-02-04T06:53:03.173Z,1.49
2023-02-04T06:55:29.922Z,1.62
2023-02-04T06:57:56.440Z,1.54
2023-02-04T07:00:23.305Z,1.63
2023-02-04T07:02:50.103Z,1.68
2023-02-04T07:05:16.949Z,1.66
2023-02-04T07:07:43.692Z,1.62
2023-02-04T07:10:10.798Z,1.52
2023-02-04T07:12:37.520Z,1.54
2023-02-04T07:15:04.625Z,1.53
2023-02-04T07:17:31.259Z,1.51
2023-02-04T07:19:57.731Z,1.52
2023-02-04T07:22:24.294Z,1.57
2023-02-04T07:24:50.968Z,1.57
2023-02-04T07:27:17.985Z,1.60
2023-02-04T07:29:44.720Z,1.66
2023-02-04T07:32:11.582Z,1.69
2023-02-04T07:34:38.062Z,1.74
2023-02-04T07:37:04.888Z,1.76
2023-02-04T07:39:31.666Z,1.68
2023-02-04T07:41:58.356Z,1.63
2023-02-04T07:44:25.067Z,1.65
2023-02-04T07:46:51.733Z,1.57
2023-02-04T07:49:18.924Z,1.64
2023-02-04T07:51:45.566Z,1.75
2023-02-04T07:54:12.232Z,1.71
2023-02-04T07:56:38.875Z,1.71
2023-02-04T07:59:05.955Z,1.72
2023-02-04T08:01:33.283Z,1.63
2023-02-04T08:04:00.134Z,1.75
2023-02-04T08:06:26.716Z,1.80
2023-02-04T08:08:53.457Z,1.84
2023-02-04T08:11:20.129Z,1.91
2023-02-04T08:13:46.761Z,1.93
2023-02-04T08:16:20.370Z,2.10
2023-02-04T08:18:46.851Z,2.13
2023-02-04T08:21:13.525Z,2.21
2023-02-04T08:23:41.954Z,2.22
2023-02-04T08:26:12.636Z,2.23
2023-02-04T08:28:39.541Z,2.40
2023-02-04T08:31:07.404Z,2.46
2023-02-04T08:33:34.167Z,2.52
2023-02-04T08:36:00.887Z,2.40
2023-02-04T08:38:27.632Z,2.43
2023-02-04T08:40:54.451Z,2.64
2023-02-04T08:43:21.235Z,2.62
2023-02-04T08:45:48.094Z,2.70
2023-02-04T08:48:14.816Z,2.67
2023-02-04T08:50:41.466Z,2.71
2023-02-04T08:53:08.088Z,2.72
2023-02-04T08:55:34.655Z,2.79
2023-02-04T08:58:02.713Z,2.91
2023-02-04T09:00:30.525Z,3.09
2023-02-04T09:02:57.438Z,3.17
2023-02-04T09:05:24.029Z,3.26
2023-02-04T09:07:50.692Z,3.40
2023-02-04T09:10:17.372Z,3.40
2023-02-04T09:12:44.036Z,3.31
2023-02-04T09:15:11.978Z,3.35
2023-02-04T09:17:39.143Z,3.37
2023-02-04T09:20:06.689Z,3.34
2023-02-04T09:22:33.441Z,3.60
2023-02-04T09:25:00.101Z,3.34
2023-02-04T09:27:26.812Z,3.49
2023-02-04T09:29:53.455Z,3.51
2023-02-04T09:32:19.987Z,3.46
2023-02-04T09:34:46.679Z,3.32
2023-02-04T09:37:13.519Z,3.15
2023-02-04T09:39:40.223Z,3.07
2023-02-04T09:42:07.484Z,3.13
2023-02-04T09:44:34.338Z,3.17
2023-02-04T09:47:01.702Z,3.28
2023-02-04T09:49:28.869Z,3.24
2023-02-04T09:51:56.060Z,3.26
2023-02-04T09:54:24.038Z,3.33
2023-02-04T09:56:52.167Z,3.12
2023-02-04T09:59:22.019Z,3.16
2023-02-04T10:01:55.893Z,3.24
2023-02-04T10:04:23.121Z,3.40
2023-02-04T10:06:50.117Z,3.42
2023-02-04T10:09:18.012Z,3.32
2023-02-04T10:11:47.682Z,3.38
2023-02-04T10:14:23.027Z,3.33
2023-02-04T10:16:58.930Z,3.34
2023-02-04T10:19:28.993Z,3.38
2023-02-04T10:21:56.408Z,3.40
2023-02-04T10:24:26.664Z,3.49
2023-02-04T10:26:54.254Z,3.57
2023-02-04T10:29:25.876Z,3.50
2023-02-04T10:31:53.167Z,3.58
2023-02-04T10:34:22.450Z,3.82
2023-02-04T10:36:52.034Z,3.93
2023-02-04T10:39:20.151Z,3.74
2023-02-04T10:41:55.517Z,3.62
2023-02-04T10:44:36.178Z,3.73
2023-02-04T10:47:14.664Z,3.79
2023-02-04T10:49:51.586Z,3.83
2023-02-04T10:52:20.243Z,3.75
2023-02-04T10:54:47.862Z,3.68
2023-02-04T10:57:26.824Z,3.74
2023-02-04T11:00:02.497Z,3.85
2023-02-04T11:02:43.616Z,4.00
2023-02-04T11:05:22.621Z,4.21
2023-02-04T11:07:50.712Z,4.64
2023-02-04T11:10:21.412Z,4.99
2023-02-04T11:13:21.232Z,5.17
2023-02-04T11:16:07.467Z,5.22
2023-02-04T11:19:04.113Z,5.29
2023-02-04T11:21:33.652Z,5.13
2023-02-04T11:24:12.452Z,5.05
2023-02-04T11:26:44.067Z,5.01
2023-02-04T11:29:16.849Z,4.94
2023-02-04T11:31:49.603Z,5.02
2023-02-04T11:34:16.310Z,5.12
2023-02-04T11:36:56.829Z,5.16
2023-02-04T11:39:28.896Z,5.18
2023-02-04T11:41:55.561Z,5.11
2023-02-04T11:44:23.299Z,4.86
2023-02-04T11:46:57.000Z,4.72
2023-02-04T11:49:25.796Z,4.33
2023-02-04T11:52:04.522Z,4.61
2023-02-04T11:54:31.107Z,4.37
2023-02-04T11:57:00.396Z,4.49
2023-02-04T11:59:27.205Z,4.57
2023-02-04T12:02:05.324Z,4.44
2023-02-04T12:04:31.854Z,4.49
2023-02-04T12:07:00.803Z,4.54
2023-02-04T12:09:32.529Z,4.64
2023-02-04T12:12:02.008Z,4.54
2023-02-04T12:14:37.129Z,4.48
2023-02-04T12:17:17.826Z,4.24
2023-02-04T12:19:44.469Z,4.05
2023-02-04T12:22:11.271Z,4.05
2023-02-04T12:24:37.913Z,3.98
2023-02-04T12:27:04.640Z,3.96
2023-02-04T12:29:31.141Z,3.92
2023-02-04T12:31:57.931Z,4.06
2023-02-04T12:34:24.805Z,4.10
2023-02-04T12:36:51.477Z,4.11
2023-02-04T12:39:18.185Z,4.16
2023-02-04T12:41:45.220Z,4.10
2023-02-04T12:44:11.950Z,3.93
2023-02-04T12:46:38.704Z,3.96
2023-02-04T12:49:05.464Z,4.30
2023-02-04T12:51:33.643Z,4.50
2023-02-04T12:54:00.193Z,4.61
2023-02-04T12:56:26.851Z,4.70
2023-02-04T12:58:53.534Z,4.67
2023-02-04T13:01:20.288Z,4.61
2023-02-04T13:03:47.055Z,4.66
2023-02-04T13:06:13.682Z,4.58
2023-02-04T13:08:40.481Z,4.42
2023-02-04T13:11:07.292Z,4.44
2023-02-04T13:13:33.851Z,4.44
2023-02-04T13:16:00.632Z,4.55
2023-02-04T13:18:27.551Z,4.61
2023-02-04T13:20:54.105Z,4.64
2023-02-04T13:23:20.630Z,4.59
2023-02-04T13:25:47.327Z,4.41
2023-02-04T13:28:14.303Z,4.33
2023-02-04T13:30:41.011Z,4.11
2023-02-04T13:33:07.523Z,4.42
2023-02-04T13:35:34.538Z,4.58
2023-02-04T13:38:01.569Z,4.65
2023-02-04T13:40:28.307Z,4.57
2023-02-04T13:42:55.058Z,4.68
2023-02-04T13:45:22.047Z,4.49
2023-02-04T13:47:49.099Z,4.40
2023-02-04T13:50:16.874Z,4.43
2023-02-04T13:52:43.839Z,4.41
2023-02-04T13:55:10.478Z,4.54
2023-02-04T13:57:38.085Z,4.52
2023-02-04T14:00:07.333Z,4.63
2023-02-04T14:02:34.732Z,4.73
2023-02-04T14:05:01.964Z,4.76
2023-02-04T14:07:28.731Z,4.83
2023-02-04T14:09:55.317Z,4.78
2023-02-04T14:12:22.231Z,4.72
2023-02-04T14:14:48.892Z,4.78
2023-02-04T14:17:15.575Z,4.79
2023-02-04T14:19:42.188Z,4.81
2023-02-04T14:22:12.895Z,4.73
2023-02-04T14:24:42.766Z,4.78
2023-02-04T14:27:10.622Z,4.83
2023-02-04T14:29:37.432Z,4.84
2023-02-04T14:32:10.922Z,4.79
2023-02-04T14:34:37.446Z,4.85
2023-02-04T14:37:04.166Z,4.63
2023-02-04T14:39:30.791Z,4.50
2023-02-04T14:41:57.831Z,4.53
2023-02-04T14:44:24.459Z,4.58
2023-02-04T14:46:51.206Z,4.25
2023-02-04T14:49:17.931Z,4.31
2023-02-04T14:51:44.537Z,4.35
2023-02-04T14:54:11.532Z,4.34
2023-02-04T14:56:38.295Z,4.32
2023-02-04T14:59:05.502Z,4.14
2023-02-04T15:01:32.210Z,4.20
2023-02-04T15:03:58.975Z,4.10
2023-02-04T15:06:25.770Z,4.10
2023-02-04T15:08:52.586Z,3.91
2023-02-04T15:11:19.285Z,3.78
2023-02-04T15:13:46.075Z,3.88
2023-02-04T15:16:14.449Z,3.89
2023-02-04T15:18:41.832Z,3.89
2023-02-04T15:21:08.819Z,3.78
2023-02-04T15:23:35.637Z,3.74
2023-02-04T15:26:02.657Z,3.78
2023-02-04T15:28:31.276Z,3.75
2023-02-04T15:30:58.513Z,3.58
2023-02-04T15:33:25.271Z,3.60
2023-02-04T15:35:52.011Z,3.61
2023-02-04T15:38:18.678Z,3.42
2023-02-04T15:40:45.266Z,3.42
2023-02-04T15:43:12.267Z,3.42
2023-02-04T15:45:41.552Z,3.36
2023-02-04T15:48:08.775Z,3.39
2023-02-04T15:50:36.046Z,3.43
2023-02-04T15:53:03.442Z,3.35
2023-02-04T15:55:30.129Z,3.36
2023-02-04T15:57:56.792Z,3.31
2023-02-04T16:00:24.215Z,3.25
2023-02-04T16:02:51.249Z,3.21
2023-02-04T16:05:18.040Z,3.14
2023-02-04T16:07:44.777Z,3.02
2023-02-04T16:10:11.855Z,3.01
2023-02-04T16:12:38.578Z,2.93
2023-02-04T16:15:05.633Z,2.84
2023-02-04T16:17:32.202Z,2.72
2023-02-04T16:19:58.997Z,2.64
2023-02-04T16:22:25.701Z,2.56
2023-02-04T16:24:53.132Z,2.50
2023-02-04T16:27:20.122Z,2.39
2023-02-04T16:29:46.792Z,2.27
2023-02-04T16:32:14.278Z,2.14
2023-02-04T16:34:41.551Z,2.04
2023-02-04T16:37:08.280Z,2.00
2023-02-04T16:39:36.973Z,1.91
2023-02-04T16:42:06.570Z,1.84
2023-02-04T16:44:33.060Z,1.74
2023-02-04T16:46:59.678Z,1.68
2023-02-04T16:49:26.588Z,1.57
2023-02-04T16:51:53.286Z,1.43
2023-02-04T16:54:19.981Z,1.35
2023-02-04T16:56:46.746Z,1.33
2023-02-04T16:59:13.484Z,1.25
2023-02-04T17:01:40.112Z,1.17
2023-02-04T17:04:06.876Z,1.16
2023-02-04T17:06:34.199Z,1.08
2023-02-04T17:09:00.789Z,1.07
2023-02-04T17:11:30.237Z,1.06
2023-02-04T17:14:01.524Z,0.89
2023-02-04T17:16:29.476Z,0.84
2023-02-04T17:18:56.857Z,0.76
2023-02-04T17:21:25.443Z,0.73
2023-02-04T17:23:52.463Z,0.69
2023-02-04T17:26:19.882Z,0.71
2023-02-04T17:28:46.653Z,0.67
2023-02-04T17:31:13.632Z,0.56
2023-02-04T17:33:40.329Z,0.53
2023-02-04T17:36:07.451Z,0.53
2023-02-04T17:38:34.233Z,0.46
2023-02-04T17:41:02.728Z,0.46
2023-02-04T17:43:29.464Z,0.41
2023-02-04T17:45:56.086Z,0.35
2023-02-04T17:48:22.660Z,0.23
2023-02-04T17:50:49.076Z,0.24
2023-02-04T17:53:15.565Z,0.23
2023-02-04T17:55:41.980Z,0.20
2023-02-04T17:58:23.753Z,0.14
2023-02-04T18:00:51.767Z,0.07
2023-02-04T18:03:21.487Z,-0.11
2023-02-04T18:05:50.920Z,-0.17
2023-02-04T18:08:27.651Z,-0.14
2023-02-04T18:10:55.895Z,-0.22
2023-02-04T18:13:30.838Z,-0.25
2023-02-04T18:16:22.097Z,-0.36
2023-02-04T18:18:48.726Z,-0.42
2023-02-04T18:21:23.359Z,-0.47
2023-02-04T18:23:56.579Z,-0.45
2023-02-04T18:26:25.864Z,-0.38
2023-02-04T18:28:52.911Z,-0.46
2023-02-04T18:31:31.291Z,-0.52
2023-02-04T18:33:58.101Z,-0.51
2023-02-04T18:36:27.442Z,-0.56
2023-02-04T18:38:55.221Z,-0.62
2023-02-04T18:41:31.636Z,-0.63
2023-02-04T18:44:17.619Z,-0.67
2023-02-04T18:46:47.917Z,-0.70
2023-02-04T18:49:33.548Z,-0.64
2023-02-04T18:52:09.789Z,-0.63
2023-02-04T18:54:37.633Z,-0.63
2023-02-04T18:57:13.566Z,-0.64
2023-02-04T18:59:40.599Z,-0.67
2023-02-04T19:02:41.274Z,-0.64
2023-02-04T19:05:28.412Z,-0.64
2023-02-04T19:08:22.750Z,-0.59
2023-02-04T19:10:50.181Z,-0.58
2023-02-04T19:13:37.279Z,-0.66
2023-02-04T19:16:26.095Z,-0.71
2023-02-04T19:18:56.865Z,-0.75
2023-02-04T19:21:31.531Z,-0.80
2023-02-04T19:24:19.564Z,-0.85
2023-02-04T19:27:00.224Z,-0.88
2023-02-04T19:29:41.758Z,-0.87
2023-02-04T19:32:21.917Z,-0.89
2023-02-04T19:34:48.718Z,-0.93
2023-02-04T19:37:23.518Z,-0.88
2023-02-04T19:39:51.627Z,-0.89
2023-02-04T19:42:36.836Z,-0.85
2023-02-04T19:45:25.543Z,-0.92
2023-02-04T19:47:54.220Z,-1.04
2023-02-04T19:50:22.428Z,-1.09
2023-02-04T19:52:56.728Z,-1.07
2023-02-04T19:55:30.011Z,-1.08
2023-02-04T19:58:18.386Z,-1.07
2023-02-04T20:00:58.044Z,-0.98
2023-02-04T20:03:40.468Z,-1.00
2023-02-04T20:06:09.996Z,-1.03
2023-02-04T20:08:56.892Z,-1.04
2023-02-04T20:11:35.705Z,-1.02
2023-02-04T20:14:14.385Z,-1.04
2023-02-04T20:16:47.035Z,-1.05
2023-02-04T20:19:26.223Z,-1.08
2023-02-04T20:22:17.690Z,-1.13
2023-02-04T20:24:47.546Z,-1.15
2023-02-04T20:27:23.875Z,-1.26
2023-02-04T20:29:58.847Z,-1.17
2023-02-04T20:32:27.785Z,-1.09
2023-02-04T20:35:04.588Z,-1.11
2023-02-04T20:37:31.588Z,-1.16
2023-02-04T20:40:00.127Z,-1.23
2023-02-04T20:42:28.867Z,-1.23
2023-02-04T20:45:08.044Z,-1.21
2023-02-04T20:47:35.205Z,-1.27
2023-02-04T20:50:01.882Z,-1.26
2023-02-04T20:52:40.428Z,-1.30
2023-02-04T20:55:29.837Z,-1.31
2023-02-04T20:58:21.021Z,-1.22
2023-02-04T21:00:52.444Z,-1.30
2023-02-04T21:03:24.338Z,-1.41
2023-02-04T21:05:52.541Z,-1.53
2023-02-04T21:08:42.391Z,-1.55
2023-02-04T21:11:09.246Z,-1.56
2023-02-04T21:13:36.456Z,-1.47
2023-02-04T21:16:03.870Z,-1.44
2023-02-04T21:18:31.171Z,-1.51
2023-02-04T21:20:57.821Z,-1.68
2023-02-04T21:23:24.600Z,-1.80
2023-02-04T21:25:51.195Z,-1.81
2023-02-04T21:28:18.043Z,-1.82
2023-02-04T21:30:44.752Z,-1.82
2023-02-04T21:33:11.863Z,-1.75
2023-02-04T21:35:39.749Z,-1.77
2023-02-04T21:38:07.551Z,-1.69
2023-02-04T21:40:36.540Z,-1.78
2023-02-04T21:43:06.456Z,-1.74
2023-02-04T21:45:33.820Z,-1.76
2023-02-04T21:48:00.962Z,-1.67
2023-02-04T21:50:27.660Z,-1.75
2023-02-04T21:52:54.342Z,-1.65
2023-02-04T21:55:21.805Z,-1.65
2023-02-04T21:57:53.407Z,-1.61
2023-02-04T22:00:23.856Z,-1.66
2023-02-04T22:02:54.221Z,-1.77
2023-02-04T22:05:21.939Z,-1.77
2023-02-04T22:07:49.635Z,-1.78
2023-02-04T22:10:19.983Z,-1.68
2023-02-04T22:12:46.774Z,-1.72
2023-02-04T22:15:13.436Z,-1.81
2023-02-04T22:17:39.887Z,-1.82
2023-02-04T22:20:06.872Z,-1.77
2023-02-04T22:22:33.429Z,-1.81
2023-02-04T22:25:00.201Z,-1.85
2023-02-04T22:27:26.825Z,-1.91
2023-02-04T22:29:53.585Z,-1.94
2023-02-04T22:32:20.226Z,-1.99
2023-02-04T22:34:46.764Z,-1.98
2023-02-04T22:37:13.584Z,-1.99
2023-02-04T22:39:40.283Z,-1.99
2023-02-04T22:42:08.736Z,-2.04
2023-02-04T22:44:35.489Z,-2.15
2023-02-04T22:47:02.157Z,-2.17
2023-02-04T22:49:29.381Z,-2.07
2023-02-04T22:51:56.013Z,-2.02
2023-02-04T22:54:22.817Z,-2.03
2023-02-04T22:56:49.447Z,-2.12
2023-02-04T22:59:15.940Z,-2.05
2023-02-04T23:01:42.639Z,-2.01
2023-02-04T23:04:09.311Z,-1.97
2023-02-04T23:06:37.300Z,-2.14
2023-02-04T23:09:04.074Z,-2.17
2023-02-04T23:11:30.746Z,-2.31
2023-02-04T23:13:57.292Z,-2.27
2023-02-04T23:16:24.037Z,-2.22
2023-02-04T23:18:50.728Z,-2.23
2023-02-04T23:21:17.675Z,-2.32
2023-02-04T23:23:44.489Z,-2.38
2023-02-04T23:26:11.102Z,-2.38
2023-02-04T23:28:37.833Z,-2.36
2023-02-04T23:31:04.466Z,-2.36
2023-02-04T23:33:31.258Z,-2.49
2023-02-04T23:35:58.045Z,-2.62
2023-02-04T23:38:24.926Z,-2.61
2023-02-04T23:40:51.582Z,-2.69
2023-02-04T23:43:18.376Z,-2.70
2023-02-04T23:45:45.934Z,-2.72
2023-02-04T23:48:12.707Z,-2.79
2023-02-04T23:50:39.416Z,-2.86
2023-02-04T23:53:06.019Z,-2.83
2023-02-04T23:55:33.318Z,-2.78
2023-02-04T23:58:00.370Z,-2.65
